Huvudsida
METAR-TAF:

METAR-TAF

Flygplatser :

Decimomannu, Italien

latitud: 39-21N, longitud: 008-58E, höjd: 29 m

Aktuellt väderrapport

Denna rapport gjordes för 41 minuter sedan, klockan 18:55 UTC
Vind 7 kt från nord
Temperatur 11°C
Fuktighet 71%
Tryck 1020 hPa
Sikt 10 km eller mer
Inga moln under 1 500 m eller inga cumulonimbus

METAR: LIED 281855Z 35007KT CAVOK 11/06 Q1020 RMK SKC VIS MIN 9999 WIND THR35 01005KT WIND THR17 /////KT BLU

Tid: 20:36 (19:36 UTC)

Väderprognos

Denna rapport gjordes för 2 timmar och 36 minuter sedan, klockan 17:00 UTC
Prognos gäller från 28 kl. 18 UTC till 29 kl. 03 UTC
Vind 9 kt från nordväst
Sikt 10 km eller mer
Inga moln under 1 500 m eller inga cumulonimbus
Blir
från 28 kl. 22 UTC till 28 kl. 24 UTC
Vind 7 kt från syd/sydost

TAF: LIED 281700Z 2818/2903 32009KT CAVOK BECMG 2822/2824 16007KT

Aktuella väderrapporter och prognoser från 4000 flygplatser (METAR- och TAF-rapporter).

De tillgängliga stationerna syns som gula och röda prickar på kartan.

För musen över prickarna för att se namnen på stationerna.

Klicka sedan för att få väderrapporter och prognoser.

För att ändra kartan: Klicka på de gröna knapparna med ett svart kors på för att zooma in; den gröna knappen med ett streck på för att zooma ut; eller på de gröna pilarna för angränsande kartor.


METAR-TAF: